Curtis Field
KBBD : now visible

Airfield :











YOU CAN JOIN US ON...

 
LOGIN :

Register | Disclaimer

   EN    FR    IT 

 









Legend :    VFR   Marginal VFR   IFR   Intensive IFR   Very Intensive IFR
Visi :
Ceiling :
>= 8 km
>= 3000ft
5 to 8 km
1000 to 3000 ft
1500m to 5 km
500 to 1000 ft
800 to 1500m
200 to 500 ft
< 800m
< 200 ft
Symbols :   Thunderstorms  Fog  Heavy snow  Heavy precipitations  Wind > 20 kt







- Airport Elevation : 1827 ft


KBBD - Curtis Field

CURRENT METAR :
  • 252335Z AUTO 36006KT 10SM CLR 27/13 A2996 RMK AO2

EXPIRED METARs :
  • 252315Z AUTO 35008KT 10SM CLR 27/12 A2996 RMK AO2
  • 252255Z AUTO 34010KT 10SM CLR 27/12 A2995 RMK AO2
  • 252235Z AUTO 33010KT 10SM CLR 27/12 A2995 RMK AO2
  • 252215Z AUTO 33010KT 10SM FEW070 27/12 A2994 RMK AO2
  • 252155Z AUTO 32012KT 10SM FEW070 27/12 A2994 RMK AO2
  • 252135Z AUTO 33010G16KT 10SM FEW070 27/12 A2994 RMK AO2
  • 252115Z AUTO 31009G16KT 10SM CLR 27/12 A2994 RMK AO2
  • 252055Z AUTO 33011G23KT 10SM CLR 27/11 A2994 RMK AO2
  • 252035Z AUTO 31012KT 10SM CLR 27/12 A2994 RMK AO2

TAF KBBD
Valid from the 26 at 00:00 until the 27 at 00:00 UTC


252322Z 2600/2624 35007KT P6SM SKC
FM261500 06011KT P6SM SKC
FM262100 13010KT P6SM SCT250
KZHU FIR / North America



MET'MAP, your aeronautical weather chart ! - Copyright ORBIFLY December 2007 - Disclaimer

ORBIFLY MET'MAP TEAM :

Programming & Development : Alexandra Zaïnal
Concept & Development : Baudouin d'Aumeries
Co-Development & Prog : Marc-Olivier Méhu
Technical & hardware support : Manuel Goepfert

Contact : metmap@orbifly.com




SOURCES & CREDITS :

   NOAA       Earth
Advisory